createdAt,value
2023-04-22T00:00:03.208Z,8.55
2023-04-22T00:02:37.535Z,9.25
2023-04-22T00:05:20.669Z,8.57
2023-04-22T00:07:54.279Z,8.93
2023-04-22T00:10:25.122Z,8.48
2023-04-22T00:13:02.914Z,8.32
2023-04-22T00:15:31.921Z,7.65
2023-04-22T00:18:05.678Z,8.90
2023-04-22T00:20:37.781Z,9.10
2023-04-22T00:23:06.777Z,8.40
2023-04-22T00:25:44.281Z,9.38
2023-04-22T00:28:17.232Z,9.13
2023-04-22T00:30:55.232Z,9.65
2023-04-22T00:33:29.816Z,7.82
2023-04-22T00:36:19.633Z,9.38
2023-04-22T00:38:55.220Z,9.00
2023-04-22T00:41:39.888Z,8.88
2023-04-22T00:44:13.889Z,8.85
2023-04-22T00:46:45.480Z,8.68
2023-04-22T00:49:14.848Z,8.75
2023-04-22T00:51:53.876Z,9.60
2023-04-22T00:54:27.372Z,9.43
2023-04-22T00:57:01.181Z,9.50
2023-04-22T00:59:33.469Z,8.88
2023-04-22T01:02:06.426Z,8.98
2023-04-22T01:04:38.435Z,8.90
2023-04-22T01:07:09.457Z,8.75
2023-04-22T01:09:50.322Z,8.95
2023-04-22T01:12:22.177Z,9.60
2023-04-22T01:14:53.127Z,9.65
2023-04-22T01:17:27.268Z,8.85
2023-04-22T01:19:59.403Z,10.32
2023-04-22T01:22:30.801Z,9.60
2023-04-22T01:25:08.664Z,9.43
2023-04-22T01:27:44.399Z,9.63
2023-04-22T01:30:17.097Z,9.45
2023-04-22T01:32:48.977Z,9.40
2023-04-22T01:35:27.587Z,9.65
2023-04-22T01:38:08.346Z,10.00
2023-04-22T01:40:43.482Z,10.32
2023-04-22T01:43:20.667Z,9.70
2023-04-22T01:45:56.443Z,9.27
2023-04-22T01:48:31.654Z,10.40
2023-04-22T01:51:02.808Z,9.85
2023-04-22T01:53:37.236Z,9.90
2023-04-22T01:56:11.343Z,10.35
2023-04-22T01:58:44.834Z,9.77
2023-04-22T02:01:14.708Z,9.65
2023-04-22T02:03:44.500Z,9.88
2023-04-22T02:06:13.772Z,9.98
2023-04-22T02:08:49.320Z,10.18
2023-04-22T02:11:25.172Z,10.60
2023-04-22T02:14:07.314Z,10.00
2023-04-22T02:16:43.031Z,9.80
2023-04-22T02:19:16.421Z,10.40
2023-04-22T02:21:53.707Z,11.45
2023-04-22T02:24:24.447Z,11.27
2023-04-22T02:27:06.553Z,9.75
2023-04-22T02:29:39.222Z,10.25
2023-04-22T02:32:12.730Z,11.43
2023-04-22T02:34:44.497Z,10.75
2023-04-22T02:37:29.357Z,10.43
2023-04-22T02:40:07.772Z,9.80
2023-04-22T02:42:43.019Z,10.70
2023-04-22T02:45:22.713Z,10.07
2023-04-22T02:47:55.562Z,10.48
2023-04-22T02:50:31.699Z,10.23
2023-04-22T02:53:05.710Z,11.55
2023-04-22T02:55:41.418Z,10.07
2023-04-22T02:58:18.696Z,11.63
2023-04-22T03:00:50.846Z,10.57
2023-04-22T03:03:22.992Z,10.70
2023-04-22T03:06:00.788Z,10.98
2023-04-22T03:08:54.011Z,10.80
2023-04-22T03:11:28.781Z,10.80
2023-04-22T03:14:02.612Z,11.43
2023-04-22T03:16:37.754Z,11.73
2023-04-22T03:19:12.854Z,10.63
2023-04-22T03:21:42.161Z,10.82
2023-04-22T03:24:16.052Z,10.40
2023-04-22T03:26:52.686Z,10.63
2023-04-22T03:29:25.315Z,9.95
2023-04-22T03:32:04.971Z,10.35
2023-04-22T03:34:41.530Z,12.05
2023-04-22T03:37:13.507Z,11.02
2023-04-22T03:39:54.484Z,10.55
2023-04-22T03:42:23.780Z,11.13
2023-04-22T03:45:01.801Z,11.45
2023-04-22T03:47:35.603Z,12.13
2023-04-22T03:50:12.985Z,11.35
2023-04-22T03:52:45.872Z,11.43
2023-04-22T03:55:19.779Z,11.13
2023-04-22T03:57:59.824Z,11.93
2023-04-22T04:00:43.874Z,11.52
2023-04-22T04:03:30.441Z,11.52
2023-04-22T04:06:05.760Z,11.45
2023-04-22T04:08:38.082Z,12.13
2023-04-22T04:11:07.609Z,12.00
2023-04-22T04:13:39.252Z,11.55
2023-04-22T04:16:14.557Z,11.30
2023-04-22T04:18:46.342Z,11.77
2023-04-22T04:21:29.494Z,11.13
2023-04-22T04:24:04.621Z,11.20
2023-04-22T04:26:42.632Z,12.35
2023-04-22T04:29:14.092Z,11.85
2023-04-22T04:31:47.843Z,11.20
2023-04-22T04:34:18.017Z,12.57
2023-04-22T04:37:05.460Z,11.52
2023-04-22T04:39:44.803Z,10.70
2023-04-22T04:42:20.125Z,11.18
2023-04-22T04:44:53.880Z,11.98
2023-04-22T04:47:33.217Z,11.65
2023-04-22T04:50:10.522Z,10.60
2023-04-22T04:52:41.769Z,11.38
2023-04-22T04:55:13.968Z,11.80
2023-04-22T04:57:51.165Z,10.77
2023-04-22T05:00:20.993Z,11.35
2023-04-22T05:02:52.133Z,12.68
2023-04-22T05:05:24.366Z,11.52
2023-04-22T05:08:06.698Z,10.65
2023-04-22T05:10:37.841Z,11.05
2023-04-22T05:13:11.743Z,11.23
2023-04-22T05:15:48.635Z,12.23
2023-04-22T05:18:20.907Z,11.43
2023-04-22T05:20:49.266Z,11.57
2023-04-22T05:23:17.607Z,10.75
2023-04-22T05:25:46.057Z,10.60
2023-04-22T05:28:14.435Z,11.50
2023-04-22T05:30:42.746Z,11.60
2023-04-22T05:33:11.171Z,10.85
2023-04-22T05:35:41.007Z,11.63
2023-04-22T05:38:09.403Z,11.00
2023-04-22T05:40:37.801Z,10.95
2023-04-22T05:43:06.414Z,11.13
2023-04-22T05:45:35.420Z,11.10
2023-04-22T05:48:03.890Z,10.68
2023-04-22T05:50:32.295Z,11.23
2023-04-22T05:53:02.031Z,11.32
2023-04-22T05:55:30.363Z,11.02
2023-04-22T05:57:58.794Z,10.57
2023-04-22T06:00:27.422Z,11.10
2023-04-22T06:02:55.925Z,11.40
2023-04-22T06:05:24.547Z,10.55
2023-04-22T06:07:53.036Z,11.93
2023-04-22T06:10:23.022Z,10.77
2023-04-22T06:12:51.344Z,11.15
2023-04-22T06:15:20.038Z,11.25
2023-04-22T06:17:49.535Z,11.90
2023-04-22T06:20:17.983Z,11.85
2023-04-22T06:22:46.409Z,11.38
2023-04-22T06:25:14.821Z,11.15
2023-04-22T06:27:44.607Z,10.93
2023-04-22T06:30:13.638Z,11.73
2023-04-22T06:32:42.116Z,15.57
2023-04-22T06:35:11.198Z,13.63
2023-04-22T06:37:39.631Z,14.50
2023-04-22T06:40:10.147Z,13.63
2023-04-22T06:42:38.817Z,12.30
2023-04-22T06:45:13.042Z,11.55
2023-04-22T06:47:41.538Z,8.15
2023-04-22T06:50:11.446Z,8.70
2023-04-22T06:52:39.790Z,7.63
2023-04-22T06:55:08.948Z,8.32
2023-04-22T06:57:37.377Z,8.05
2023-04-22T07:00:11.283Z,6.70
2023-04-22T07:02:41.198Z,7.43
2023-04-22T07:05:10.169Z,7.75
2023-04-22T07:07:38.651Z,6.70
2023-04-22T07:10:08.017Z,7.13
2023-04-22T07:12:36.424Z,5.53
2023-04-22T07:15:05.236Z,6.18
2023-04-22T07:17:33.620Z,6.30
2023-04-22T07:20:04.097Z,5.30
2023-04-22T07:22:32.415Z,5.13
2023-04-22T07:25:00.887Z,6.05
2023-04-22T07:27:29.350Z,6.00
2023-04-22T07:29:57.792Z,6.47
2023-04-22T07:32:26.284Z,6.05
2023-04-22T07:34:54.658Z,5.50
2023-04-22T07:37:24.578Z,5.65
2023-04-22T07:39:52.962Z,5.70
2023-04-22T07:42:21.639Z,4.93
2023-04-22T07:44:49.966Z,4.95
2023-04-22T07:47:18.369Z,5.15
2023-04-22T07:49:46.998Z,5.05
2023-04-22T07:52:15.369Z,5.32
2023-04-22T07:54:45.114Z,4.90
2023-04-22T07:57:13.448Z,5.20
2023-04-22T07:59:42.031Z,4.85
2023-04-22T08:02:10.581Z,4.88
2023-04-22T08:04:39.143Z,4.90
2023-04-22T08:07:30.477Z,5.32
2023-04-22T08:09:57.797Z,4.45
2023-04-22T08:12:26.286Z,4.40
2023-04-22T08:14:54.654Z,5.00
2023-04-22T08:17:23.090Z,4.43
2023-04-22T08:19:51.559Z,4.65
2023-04-22T08:22:19.921Z,4.28
2023-04-22T08:24:48.266Z,4.10
2023-04-22T08:27:19.306Z,4.10
2023-04-22T08:29:47.703Z,4.28
2023-04-22T08:32:16.145Z,4.13
2023-04-22T08:34:44.560Z,3.50
2023-04-22T08:37:12.943Z,3.95
2023-04-22T08:39:41.563Z,3.63
2023-04-22T08:42:10.420Z,3.92
2023-04-22T08:44:40.225Z,3.78
2023-04-22T08:47:08.767Z,3.75
2023-04-22T08:49:37.560Z,3.75
2023-04-22T08:52:06.388Z,3.92
2023-04-22T08:54:37.379Z,3.20
2023-04-22T08:57:05.980Z,3.78
2023-04-22T08:59:34.368Z,3.63
2023-04-22T09:02:04.299Z,3.10
2023-04-22T09:04:32.972Z,3.03
2023-04-22T09:07:01.464Z,3.35
2023-04-22T09:09:30.848Z,3.28
2023-04-22T09:11:59.368Z,3.10
2023-04-22T09:14:27.776Z,3.28
2023-04-22T09:16:56.199Z,3.13
2023-04-22T09:19:26.859Z,3.00
2023-04-22T09:21:55.227Z,2.65
2023-04-22T09:24:23.638Z,2.97
2023-04-22T09:26:51.982Z,2.67
2023-04-22T09:29:20.450Z,2.58
2023-04-22T09:31:50.812Z,2.90
2023-04-22T09:34:19.293Z,3.00
2023-04-22T09:36:49.402Z,2.90
2023-04-22T09:39:18.120Z,2.70
2023-04-22T09:41:46.574Z,2.92
2023-04-22T09:44:18.126Z,2.80
2023-04-22T09:46:46.661Z,2.75
2023-04-22T09:49:15.061Z,2.72
2023-04-22T09:51:43.437Z,2.42
2023-04-22T09:54:13.334Z,2.90
2023-04-22T09:56:49.436Z,2.70
2023-04-22T09:59:22.257Z,2.85
2023-04-22T10:01:51.907Z,2.80
2023-04-22T10:04:23.408Z,2.15
2023-04-22T10:06:52.318Z,2.40
2023-04-22T10:09:25.014Z,2.70
2023-04-22T10:11:55.111Z,2.25
2023-04-22T10:14:23.735Z,2.35
2023-04-22T10:16:54.921Z,2.70
2023-04-22T10:19:24.627Z,2.20
2023-04-22T10:21:55.787Z,2.67
2023-04-22T10:24:27.981Z,2.30
2023-04-22T10:26:58.301Z,2.47
2023-04-22T10:29:28.342Z,2.30
2023-04-22T10:31:58.469Z,2.28
2023-04-22T10:34:26.893Z,2.30
2023-04-22T10:37:00.842Z,2.13
2023-04-22T10:39:30.896Z,2.00
2023-04-22T10:42:10.122Z,2.20
2023-04-22T10:44:49.928Z,2.25
2023-04-22T10:47:28.770Z,2.15
2023-04-22T10:50:22.089Z,2.10
2023-04-22T10:52:52.540Z,2.30
2023-04-22T10:55:22.570Z,2.30
2023-04-22T10:57:51.876Z,2.05
2023-04-22T11:03:14.827Z,1.88
2023-04-22T11:05:43.427Z,2.10
2023-04-22T11:08:16.670Z,1.77
2023-04-22T11:10:47.628Z,1.70
2023-04-22T11:13:17.013Z,1.90
2023-04-22T11:15:46.466Z,2.17
2023-04-22T11:18:24.994Z,2.25
2023-04-22T11:20:53.871Z,1.95
2023-04-22T11:23:25.711Z,1.88
2023-04-22T11:26:00.272Z,1.77
2023-04-22T11:28:28.773Z,2.10
2023-04-22T11:31:04.880Z,1.85
2023-04-22T11:33:34.747Z,2.00
2023-04-22T11:36:03.304Z,1.70
2023-04-22T11:38:31.887Z,1.75
2023-04-22T11:41:01.618Z,1.80
2023-04-22T11:43:29.978Z,2.03
2023-04-22T11:45:58.402Z,1.85
2023-04-22T11:48:26.904Z,2.40
2023-04-22T11:51:10.272Z,2.00
2023-04-22T11:53:39.642Z,1.88
2023-04-22T11:56:09.496Z,1.98
2023-04-22T11:58:40.239Z,1.80
2023-04-22T12:01:12.948Z,1.85
2023-04-22T12:03:42.212Z,1.60
2023-04-22T12:06:11.082Z,1.75
2023-04-22T12:08:42.622Z,1.70
2023-04-22T12:11:13.035Z,1.77
2023-04-22T12:13:43.537Z,1.92
2023-04-22T12:16:14.113Z,1.60
2023-04-22T12:18:43.470Z,1.80
2023-04-22T12:21:12.757Z,2.00
2023-04-22T12:23:44.483Z,1.70
2023-04-22T12:26:14.375Z,1.73
2023-04-22T12:28:43.501Z,1.52
2023-04-22T12:31:12.081Z,1.83
2023-04-22T12:33:41.034Z,2.10
2023-04-22T12:36:09.583Z,1.85
2023-04-22T12:38:38.149Z,1.88
2023-04-22T12:41:07.110Z,1.80
2023-04-22T12:43:37.834Z,2.00
2023-04-22T12:46:06.665Z,1.98
2023-04-22T12:48:36.121Z,1.95
2023-04-22T12:51:05.057Z,2.00
2023-04-22T12:53:33.509Z,2.00
2023-04-22T12:56:01.856Z,2.00
2023-04-22T12:58:30.248Z,1.88
2023-04-22T13:00:59.995Z,1.70
2023-04-22T13:03:28.701Z,2.10
2023-04-22T13:05:57.295Z,2.08
2023-04-22T13:08:26.080Z,2.45
2023-04-22T13:10:54.473Z,2.10
2023-04-22T13:13:22.938Z,2.17
2023-04-22T13:15:53.813Z,2.15
2023-04-22T13:18:24.505Z,2.35
2023-04-22T13:20:53.243Z,2.72
2023-04-22T13:23:22.194Z,2.30
2023-04-22T13:25:50.784Z,2.13
2023-04-22T13:28:19.209Z,2.42
2023-04-22T13:30:47.587Z,2.22
2023-04-22T13:33:15.988Z,2.10
2023-04-22T13:35:46.209Z,2.08
2023-04-22T13:38:14.729Z,2.35
2023-04-22T13:40:43.377Z,2.05
2023-04-22T13:43:11.780Z,4.93
2023-04-22T13:45:40.831Z,5.35
2023-04-22T13:48:09.269Z,4.43
2023-04-22T13:50:37.646Z,4.28
2023-04-22T13:53:10.223Z,2.72
2023-04-22T13:55:38.675Z,2.60
2023-04-22T13:58:07.785Z,2.50
2023-04-22T14:00:36.425Z,3.05
2023-04-22T14:03:05.114Z,2.60
2023-04-22T14:05:33.811Z,2.60
2023-04-22T14:08:02.201Z,2.47
2023-04-22T14:10:32.073Z,2.80
2023-04-22T14:13:00.577Z,2.60
2023-04-22T14:15:28.963Z,2.50
2023-04-22T14:17:57.414Z,2.40
2023-04-22T14:20:26.259Z,1.73
2023-04-22T14:22:54.692Z,2.03
2023-04-22T14:25:23.060Z,2.13
2023-04-22T14:27:52.825Z,2.25
2023-04-22T14:30:22.050Z,7.43
2023-04-22T14:32:50.740Z,3.33
2023-04-22T14:35:19.752Z,4.75
2023-04-22T14:37:48.189Z,4.55
2023-04-22T14:40:16.736Z,4.18
2023-04-22T14:42:45.170Z,2.42
2023-04-22T14:45:15.753Z,2.85
2023-04-22T14:47:44.172Z,2.60
2023-04-22T14:50:12.758Z,2.50
2023-04-22T14:52:41.143Z,2.70
2023-04-22T14:55:21.793Z,2.65
2023-04-22T14:57:51.607Z,2.50
2023-04-22T15:00:21.747Z,2.85
2023-04-22T15:02:50.271Z,2.78
2023-04-22T15:05:18.802Z,2.45
2023-04-22T15:07:47.213Z,2.35
2023-04-22T15:10:16.806Z,2.45
2023-04-22T15:12:45.516Z,2.72
2023-04-22T15:15:16.102Z,2.65
2023-04-22T15:17:46.310Z,2.78
2023-04-22T15:20:14.966Z,2.80
2023-04-22T15:22:43.364Z,2.58
2023-04-22T15:25:11.910Z,2.30
2023-04-22T15:27:40.582Z,2.47
2023-04-22T15:30:11.026Z,2.42
2023-04-22T15:32:40.176Z,2.55
2023-04-22T15:35:12.021Z,2.33
2023-04-22T15:37:40.497Z,2.38
2023-04-22T15:40:10.196Z,2.40
2023-04-22T15:42:38.604Z,2.20
2023-04-22T15:45:08.633Z,2.42
2023-04-22T15:47:37.409Z,2.25
2023-04-22T15:50:09.282Z,2.50
2023-04-22T15:52:39.574Z,2.17
2023-04-22T15:55:09.456Z,2.10
2023-04-22T15:57:38.018Z,1.92
2023-04-22T16:00:11.800Z,1.70
2023-04-22T16:02:41.720Z,2.20
2023-04-22T16:05:11.429Z,1.90
2023-04-22T16:07:41.396Z,2.10
2023-04-22T16:10:11.969Z,1.80
2023-04-22T16:12:40.443Z,2.15
2023-04-22T16:15:11.130Z,1.90
2023-04-22T16:17:39.761Z,2.00
2023-04-22T16:20:10.712Z,2.00
2023-04-22T16:22:40.575Z,2.10
2023-04-22T16:25:10.792Z,1.77
2023-04-22T16:27:39.204Z,1.80
2023-04-22T16:30:09.173Z,1.70
2023-04-22T16:32:37.699Z,1.92
2023-04-22T16:35:07.292Z,2.28
2023-04-22T16:37:36.806Z,1.77
2023-04-22T16:40:07.928Z,2.17
2023-04-22T16:42:36.388Z,1.80
2023-04-22T16:45:06.670Z,1.50
2023-04-22T16:47:35.144Z,1.92
2023-04-22T16:50:03.848Z,2.05
2023-04-22T16:52:32.274Z,1.98
2023-04-22T16:55:00.780Z,1.98
2023-04-22T16:57:30.576Z,1.80
2023-04-22T16:59:59.015Z,1.92
2023-04-22T17:02:27.514Z,1.70
2023-04-22T17:04:56.005Z,1.90
2023-04-22T17:07:24.420Z,1.80
2023-04-22T17:09:52.790Z,1.80
2023-04-22T17:12:21.201Z,1.60
2023-04-22T17:14:50.980Z,1.83
2023-04-22T17:17:19.412Z,2.10
2023-04-22T17:19:47.834Z,2.10
2023-04-22T17:22:16.300Z,1.92
2023-04-22T17:24:44.713Z,2.17
2023-04-22T17:27:15.145Z,2.05
2023-04-22T17:29:43.548Z,2.00
2023-04-22T17:32:13.359Z,2.22
2023-04-22T17:34:42.020Z,2.30
2023-04-22T17:37:10.709Z,1.67
2023-04-22T17:39:40.007Z,1.92
2023-04-22T17:42:08.473Z,1.77
2023-04-22T17:44:37.099Z,2.10
2023-04-22T17:47:07.461Z,2.65
2023-04-22T17:49:37.901Z,1.90
2023-04-22T17:52:06.466Z,2.20
2023-04-22T17:54:34.922Z,2.50
2023-04-22T17:57:04.119Z,1.83
2023-04-22T17:59:32.551Z,1.60
2023-04-22T18:02:01.697Z,1.70
2023-04-22T18:04:30.278Z,1.77
2023-04-22T18:07:00.023Z,2.15
2023-04-22T18:09:28.411Z,2.55
2023-04-22T18:11:58.659Z,3.10
2023-04-22T18:14:27.660Z,3.50
2023-04-22T18:16:56.198Z,4.00
2023-04-22T18:19:24.624Z,3.88
2023-04-22T18:22:00.038Z,4.47
2023-04-22T18:24:30.575Z,4.45
2023-04-22T18:26:59.063Z,4.18
2023-04-22T18:29:27.630Z,4.75
2023-04-22T18:31:56.270Z,4.30
2023-04-22T18:34:24.749Z,4.75
2023-04-22T18:36:53.153Z,3.95
2023-04-22T18:39:21.538Z,4.07
2023-04-22T18:41:51.615Z,3.70
2023-04-22T18:44:20.112Z,3.83
2023-04-22T18:46:48.610Z,3.90
2023-04-22T18:49:17.028Z,4.25
2023-04-22T18:51:47.591Z,3.50
2023-04-22T18:54:16.194Z,3.75
2023-04-22T18:56:45.996Z,3.65
2023-04-22T18:59:16.231Z,3.97
2023-04-22T19:01:44.725Z,3.22
2023-04-22T19:04:13.412Z,3.30
2023-04-22T19:06:41.994Z,2.95
2023-04-22T19:09:11.359Z,3.38
2023-04-22T19:11:40.050Z,3.10
2023-04-22T19:14:08.678Z,3.03
2023-04-22T19:16:38.470Z,3.47
2023-04-22T19:19:06.902Z,3.17
2023-04-22T19:21:35.292Z,3.67
2023-04-22T19:24:03.692Z,3.70
2023-04-22T19:26:32.366Z,3.42
2023-04-22T19:29:00.796Z,3.17
2023-04-22T19:31:29.459Z,3.20
2023-04-22T19:33:59.361Z,3.30
2023-04-22T19:36:28.329Z,3.80
2023-04-22T19:38:56.750Z,3.47
2023-04-22T19:41:25.482Z,3.55
2023-04-22T19:43:55.506Z,3.50
2023-04-22T19:46:23.963Z,2.95
2023-04-22T19:48:53.281Z,3.63
2023-04-22T19:51:23.116Z,3.65
2023-04-22T19:53:51.656Z,3.22
2023-04-22T19:56:20.064Z,4.00
2023-04-22T19:58:48.487Z,3.65
2023-04-22T20:01:17.455Z,4.13
2023-04-22T20:03:47.109Z,4.38
2023-04-22T20:06:15.670Z,4.22
2023-04-22T20:08:45.426Z,4.60
2023-04-22T20:11:15.223Z,3.85
2023-04-22T20:13:45.721Z,4.43
2023-04-22T20:16:19.364Z,3.67
2023-04-22T20:18:48.398Z,4.00
2023-04-22T20:21:16.840Z,4.45
2023-04-22T20:23:46.768Z,3.67
2023-04-22T20:26:15.390Z,4.28
2023-04-22T20:28:46.081Z,3.75
2023-04-22T20:31:14.747Z,3.38
2023-04-22T20:33:43.410Z,3.80
2023-04-22T20:36:12.836Z,3.85
2023-04-22T20:38:41.296Z,3.38
2023-04-22T20:41:13.402Z,3.60
2023-04-22T20:43:42.328Z,3.22
2023-04-22T20:46:11.012Z,3.72
2023-04-22T20:48:39.416Z,3.90
2023-04-22T20:51:08.151Z,4.38
2023-04-22T20:53:36.503Z,4.32
2023-04-22T20:56:06.118Z,4.70
2023-04-22T20:58:35.879Z,4.20
2023-04-22T21:01:04.410Z,4.82
2023-04-22T21:03:33.035Z,5.32
2023-04-22T21:06:01.719Z,4.35
2023-04-22T21:08:30.707Z,5.47
2023-04-22T21:10:59.904Z,4.85
2023-04-22T21:13:29.100Z,4.50
2023-04-22T21:16:00.491Z,4.47
2023-04-22T21:18:29.583Z,4.07
2023-04-22T21:20:58.283Z,3.90
2023-04-22T21:23:27.049Z,4.30
2023-04-22T21:25:55.863Z,4.82
2023-04-22T21:28:24.474Z,4.43
2023-04-22T21:30:53.522Z,4.55
2023-04-22T21:33:25.148Z,4.15
2023-04-22T21:35:55.440Z,4.65
2023-04-22T21:38:23.935Z,4.43
2023-04-22T21:40:52.331Z,4.80
2023-04-22T21:43:20.655Z,4.43
2023-04-22T21:45:49.105Z,5.05
2023-04-22T21:48:17.514Z,5.00
2023-04-22T21:50:47.337Z,4.60
2023-04-22T21:53:15.857Z,5.00
2023-04-22T21:55:44.252Z,4.80
2023-04-22T21:58:12.678Z,6.22
2023-04-22T22:00:41.134Z,4.68
2023-04-22T22:03:09.788Z,4.85
2023-04-22T22:05:38.198Z,5.07
2023-04-22T22:08:08.406Z,5.32
2023-04-22T22:10:37.326Z,4.85
2023-04-22T22:13:06.193Z,5.13
2023-04-22T22:15:34.856Z,5.03
2023-04-22T22:18:04.322Z,5.22
2023-04-22T22:20:33.002Z,4.50
2023-04-22T22:23:01.397Z,5.55
2023-04-22T22:25:31.179Z,5.07
2023-04-22T22:27:59.527Z,5.50
2023-04-22T22:30:28.013Z,5.47
2023-04-22T22:32:56.419Z,5.70
2023-04-22T22:35:24.887Z,5.40
2023-04-22T22:37:53.247Z,6.47
2023-04-22T22:40:21.756Z,5.38
2023-04-22T22:42:51.543Z,6.03
2023-04-22T22:45:19.940Z,5.50
2023-04-22T22:47:48.327Z,5.55
2023-04-22T22:50:16.812Z,5.88
2023-04-22T22:52:45.164Z,5.85
2023-04-22T22:55:13.900Z,5.85
2023-04-22T22:57:42.328Z,5.65
2023-04-22T23:00:13.809Z,5.72
2023-04-22T23:02:42.480Z,6.03
2023-04-22T23:05:11.281Z,5.90
2023-04-22T23:07:39.716Z,6.13
2023-04-22T23:10:10.059Z,5.90
2023-04-22T23:12:38.564Z,5.80
2023-04-22T23:15:09.003Z,5.78
2023-04-22T23:17:39.073Z,6.10
2023-04-22T23:20:10.996Z,6.40
2023-04-22T23:22:40.398Z,5.57
2023-04-22T23:25:10.704Z,6.13
2023-04-22T23:27:39.791Z,6.20
2023-04-22T23:30:09.955Z,6.03
2023-04-22T23:32:40.769Z,6.15
2023-04-22T23:35:11.672Z,5.78
2023-04-22T23:37:40.117Z,6.53
2023-04-22T23:40:10.853Z,6.35
2023-04-22T23:42:39.242Z,6.03
2023-04-22T23:45:09.346Z,6.20
2023-04-22T23:47:39.141Z,6.03
2023-04-22T23:50:09.134Z,6.20
2023-04-22T23:52:41.133Z,5.93
2023-04-22T23:55:11.790Z,6.07
2023-04-22T23:57:40.757Z,6.03
